sensor_id;sensor_type;location;lat;lon;timestamp;P1;durP1;ratioP1;P2;durP2;ratioP2
17925;SDS011;9088;55.674;13.354;2023-04-06T08:13:58;8.33;;;8.03;;
17925;SDS011;9088;55.674;13.354;2023-04-06T08:16:25;8.17;;;7.87;;
17925;SDS011;9088;55.674;13.354;2023-04-06T08:18:52;8.00;;;7.70;;
17925;SDS011;9088;55.674;13.354;2023-04-06T08:21:19;8.33;;;8.03;;
17925;SDS011;9088;55.674;13.354;2023-04-06T08:23:46;7.97;;;7.67;;
17925;SDS011;9088;55.674;13.354;2023-04-06T08:26:13;8.00;;;7.70;;
17925;SDS011;9088;55.674;13.354;2023-04-06T08:28:40;7.97;;;7.67;;
17925;SDS011;9088;55.674;13.354;2023-04-06T08:31:09;8.10;;;7.80;;
17925;SDS011;9088;55.674;13.354;2023-04-06T08:33:36;7.93;;;7.63;;
17925;SDS011;9088;55.674;13.354;2023-04-06T08:36:08;8.00;;;7.70;;
17925;SDS011;9088;55.674;13.354;2023-04-06T08:38:35;7.93;;;7.63;;
17925;SDS011;9088;55.674;13.354;2023-04-06T08:41:06;7.90;;;7.60;;
17925;SDS011;9088;55.674;13.354;2023-04-06T08:43:33;7.70;;;7.40;;
17925;SDS011;9088;55.674;13.354;2023-04-06T08:46:02;7.30;;;7.00;;
17925;SDS011;9088;55.674;13.354;2023-04-06T08:48:31;7.80;;;7.50;;
17925;SDS011;9088;55.674;13.354;2023-04-06T08:50:58;8.00;;;7.70;;
17925;SDS011;9088;55.674;13.354;2023-04-06T08:53:25;7.73;;;7.43;;
17925;SDS011;9088;55.674;13.354;2023-04-06T08:55:53;8.00;;;7.70;;
17925;SDS011;9088;55.674;13.354;2023-04-06T08:58:20;8.27;;;7.97;;
17925;SDS011;9088;55.674;13.354;2023-04-06T09:00:48;7.90;;;7.60;;
17925;SDS011;9088;55.674;13.354;2023-04-06T09:03:15;8.50;;;8.20;;
17925;SDS011;9088;55.674;13.354;2023-04-06T09:05:44;8.50;;;8.20;;
17925;SDS011;9088;55.674;13.354;2023-04-06T09:08:12;8.53;;;8.23;;
17925;SDS011;9088;55.674;13.354;2023-04-06T09:10:40;8.63;;;8.33;;
17925;SDS011;9088;55.674;13.354;2023-04-06T09:13:07;8.50;;;8.20;;
17925;SDS011;9088;55.674;13.354;2023-04-06T09:15:35;8.47;;;8.17;;
17925;SDS011;9088;55.674;13.354;2023-04-06T09:18:02;8.53;;;8.23;;
17925;SDS011;9088;55.674;13.354;2023-04-06T09:20:30;8.37;;;8.07;;
17925;SDS011;9088;55.674;13.354;2023-04-06T09:22:58;8.77;;;8.47;;
17925;SDS011;9088;55.674;13.354;2023-04-06T09:25:25;8.50;;;8.20;;
17925;SDS011;9088;55.674;13.354;2023-04-06T09:27:59;8.30;;;8.00;;
17925;SDS011;9088;55.674;13.354;2023-04-06T09:30:26;7.80;;;7.50;;
17925;SDS011;9088;55.674;13.354;2023-04-06T09:32:54;7.67;;;7.37;;
17925;SDS011;9088;55.674;13.354;2023-04-06T09:35:22;7.50;;;7.20;;
17925;SDS011;9088;55.674;13.354;2023-04-06T09:37:51;7.60;;;7.30;;
17925;SDS011;9088;55.674;13.354;2023-04-06T09:40:20;7.30;;;7.00;;
17925;SDS011;9088;55.674;13.354;2023-04-06T09:42:47;7.03;;;6.73;;
17925;SDS011;9088;55.674;13.354;2023-04-06T09:45:16;7.20;;;6.90;;
17925;SDS011;9088;55.674;13.354;2023-04-06T09:47:44;6.60;;;6.40;;
17925;SDS011;9088;55.674;13.354;2023-04-06T09:50:11;6.17;;;5.97;;
17925;SDS011;9088;55.674;13.354;2023-04-06T09:52:40;6.47;;;6.27;;
17925;SDS011;9088;55.674;13.354;2023-04-06T09:55:08;6.00;;;5.80;;
17925;SDS011;9088;55.674;13.354;2023-04-06T09:57:40;5.90;;;5.70;;
17925;SDS011;9088;55.674;13.354;2023-04-06T10:00:09;5.70;;;5.50;;
17925;SDS011;9088;55.674;13.354;2023-04-06T10:02:39;5.03;;;4.83;;
17925;SDS011;9088;55.674;13.354;2023-04-06T10:05:09;4.97;;;4.77;;
17925;SDS011;9088;55.674;13.354;2023-04-06T10:07:36;4.70;;;4.50;;
17925;SDS011;9088;55.674;13.354;2023-04-06T10:10:05;4.23;;;4.13;;
17925;SDS011;9088;55.674;13.354;2023-04-06T10:12:33;4.03;;;3.93;;
17925;SDS011;9088;55.674;13.354;2023-04-06T10:15:01;4.10;;;4.00;;
17925;SDS011;9088;55.674;13.354;2023-04-06T10:17:28;4.00;;;3.90;;
17925;SDS011;9088;55.674;13.354;2023-04-06T10:20:02;3.90;;;3.80;;
17925;SDS011;9088;55.674;13.354;2023-04-06T10:22:32;3.70;;;3.60;;
17925;SDS011;9088;55.674;13.354;2023-04-06T10:25:01;3.50;;;3.40;;
17925;SDS011;9088;55.674;13.354;2023-04-06T10:27:29;3.70;;;3.60;;
17925;SDS011;9088;55.674;13.354;2023-04-06T10:30:01;3.70;;;3.60;;
17925;SDS011;9088;55.674;13.354;2023-04-06T10:32:32;3.67;;;3.57;;
17925;SDS011;9088;55.674;13.354;2023-04-06T10:35:04;3.70;;;3.60;;
17925;SDS011;9088;55.674;13.354;2023-04-06T10:37:45;3.50;;;3.40;;
17925;SDS011;9088;55.674;13.354;2023-04-06T10:40:17;3.53;;;3.43;;
17925;SDS011;9088;55.674;13.354;2023-04-06T10:42:44;3.60;;;3.50;;
17925;SDS011;9088;55.674;13.354;2023-04-06T10:45:19;3.60;;;3.50;;
17925;SDS011;9088;55.674;13.354;2023-04-06T10:47:46;3.80;;;3.70;;
17925;SDS011;9088;55.674;13.354;2023-04-06T10:50:14;3.40;;;3.30;;
17925;SDS011;9088;55.674;13.354;2023-04-06T10:52:41;3.40;;;3.30;;
17925;SDS011;9088;55.674;13.354;2023-04-06T10:55:08;3.33;;;3.23;;
17925;SDS011;9088;55.674;13.354;2023-04-06T10:57:36;3.20;;;3.10;;
17925;SDS011;9088;55.674;13.354;2023-04-06T11:00:03;3.30;;;3.20;;
17925;SDS011;9088;55.674;13.354;2023-04-06T11:02:32;3.50;;;3.40;;
17925;SDS011;9088;55.674;13.354;2023-04-06T11:04:59;3.50;;;3.40;;
17925;SDS011;9088;55.674;13.354;2023-04-06T11:07:26;3.40;;;3.30;;
17925;SDS011;9088;55.674;13.354;2023-04-06T11:09:55;3.47;;;3.37;;
17925;SDS011;9088;55.674;13.354;2023-04-06T11:12:23;3.60;;;3.50;;
17925;SDS011;9088;55.674;13.354;2023-04-06T11:14:54;3.33;;;3.23;;
17925;SDS011;9088;55.674;13.354;2023-04-06T11:17:26;3.20;;;3.10;;
17925;SDS011;9088;55.674;13.354;2023-04-06T11:19:54;3.30;;;3.20;;
17925;SDS011;9088;55.674;13.354;2023-04-06T11:22:21;3.27;;;3.17;;
17925;SDS011;9088;55.674;13.354;2023-04-06T11:24:48;3.30;;;3.20;;
17925;SDS011;9088;55.674;13.354;2023-04-06T11:27:15;3.30;;;3.20;;
17925;SDS011;9088;55.674;13.354;2023-04-06T11:29:42;3.20;;;3.10;;
17925;SDS011;9088;55.674;13.354;2023-04-06T11:32:11;3.60;;;3.50;;
17925;SDS011;9088;55.674;13.354;2023-04-06T11:34:39;3.20;;;3.10;;
17925;SDS011;9088;55.674;13.354;2023-04-06T11:37:08;3.20;;;3.10;;
17925;SDS011;9088;55.674;13.354;2023-04-06T11:39:37;3.40;;;3.30;;
17925;SDS011;9088;55.674;13.354;2023-04-06T11:42:05;3.60;;;3.50;;
17925;SDS011;9088;55.674;13.354;2023-04-06T11:44:33;3.60;;;3.50;;
17925;SDS011;9088;55.674;13.354;2023-04-06T11:47:00;3.40;;;3.30;;
17925;SDS011;9088;55.674;13.354;2023-04-06T11:49:27;3.20;;;3.10;;
17925;SDS011;9088;55.674;13.354;2023-04-06T11:51:54;3.30;;;3.20;;
17925;SDS011;9088;55.674;13.354;2023-04-06T11:54:30;3.03;;;2.93;;
17925;SDS011;9088;55.674;13.354;2023-04-06T11:56:57;3.30;;;3.20;;
17925;SDS011;9088;55.674;13.354;2023-04-06T11:59:25;3.30;;;3.20;;
17925;SDS011;9088;55.674;13.354;2023-04-06T12:01:52;3.30;;;3.20;;
17925;SDS011;9088;55.674;13.354;2023-04-06T12:04:19;3.40;;;3.30;;
17925;SDS011;9088;55.674;13.354;2023-04-06T12:06:47;3.30;;;3.20;;
17925;SDS011;9088;55.674;13.354;2023-04-06T12:09:14;3.20;;;3.10;;
17925;SDS011;9088;55.674;13.354;2023-04-06T12:11:43;3.30;;;3.20;;
17925;SDS011;9088;55.674;13.354;2023-04-06T12:14:10;3.10;;;3.00;;
17925;SDS011;9088;55.674;13.354;2023-04-06T12:16:37;3.20;;;3.10;;
17925;SDS011;9088;55.674;13.354;2023-04-06T12:19:05;3.10;;;3.00;;
17925;SDS011;9088;55.674;13.354;2023-04-06T12:21:32;3.20;;;3.10;;
17925;SDS011;9088;55.674;13.354;2023-04-06T12:24:00;3.10;;;3.00;;
17925;SDS011;9088;55.674;13.354;2023-04-06T12:26:27;3.20;;;3.10;;
17925;SDS011;9088;55.674;13.354;2023-04-06T12:28:56;3.30;;;3.20;;
17925;SDS011;9088;55.674;13.354;2023-04-06T12:31:27;3.00;;;2.90;;
17925;SDS011;9088;55.674;13.354;2023-04-06T12:33:54;3.13;;;3.03;;
17925;SDS011;9088;55.674;13.354;2023-04-06T12:36:21;3.47;;;3.37;;
17925;SDS011;9088;55.674;13.354;2023-04-06T12:38:49;3.23;;;3.13;;
17925;SDS011;9088;55.674;13.354;2023-04-06T12:41:16;3.17;;;3.07;;
17925;SDS011;9088;55.674;13.354;2023-04-06T12:43:43;3.03;;;2.93;;
17925;SDS011;9088;55.674;13.354;2023-04-06T12:46:12;3.20;;;3.10;;
17925;SDS011;9088;55.674;13.354;2023-04-06T12:48:39;3.10;;;3.00;;
17925;SDS011;9088;55.674;13.354;2023-04-06T12:51:06;3.00;;;2.90;;
17925;SDS011;9088;55.674;13.354;2023-04-06T12:53:34;3.17;;;3.07;;
17925;SDS011;9088;55.674;13.354;2023-04-06T12:56:01;3.03;;;2.93;;
17925;SDS011;9088;55.674;13.354;2023-04-06T12:58:29;3.20;;;3.10;;
17925;SDS011;9088;55.674;13.354;2023-04-06T13:00:57;3.10;;;3.00;;
17925;SDS011;9088;55.674;13.354;2023-04-06T13:03:29;3.17;;;3.07;;
17925;SDS011;9088;55.674;13.354;2023-04-06T13:05:56;3.07;;;2.97;;
17925;SDS011;9088;55.674;13.354;2023-04-06T13:08:23;3.20;;;3.10;;
17925;SDS011;9088;55.674;13.354;2023-04-06T13:10:50;3.40;;;3.30;;
17925;SDS011;9088;55.674;13.354;2023-04-06T13:13:20;3.40;;;3.30;;
17925;SDS011;9088;55.674;13.354;2023-04-06T13:15:47;3.50;;;3.40;;
17925;SDS011;9088;55.674;13.354;2023-04-06T13:18:14;3.30;;;3.20;;
17925;SDS011;9088;55.674;13.354;2023-04-06T13:20:42;3.23;;;3.13;;
17925;SDS011;9088;55.674;13.354;2023-04-06T13:23:09;2.83;;;2.73;;
17925;SDS011;9088;55.674;13.354;2023-04-06T13:25:36;3.30;;;3.20;;
17925;SDS011;9088;55.674;13.354;2023-04-06T13:28:03;3.10;;;3.00;;
17925;SDS011;9088;55.674;13.354;2023-04-06T13:30:31;3.20;;;3.10;;
17925;SDS011;9088;55.674;13.354;2023-04-06T13:32:57;3.20;;;3.10;;
17925;SDS011;9088;55.674;13.354;2023-04-06T13:35:25;3.33;;;3.23;;
17925;SDS011;9088;55.674;13.354;2023-04-06T13:37:53;3.30;;;3.20;;
17925;SDS011;9088;55.674;13.354;2023-04-06T13:40:20;3.27;;;3.17;;
17925;SDS011;9088;55.674;13.354;2023-04-06T13:42:47;3.40;;;3.30;;
17925;SDS011;9088;55.674;13.354;2023-04-06T13:45:15;3.17;;;3.07;;
17925;SDS011;9088;55.674;13.354;2023-04-06T13:47:42;3.23;;;3.13;;
17925;SDS011;9088;55.674;13.354;2023-04-06T13:50:09;3.20;;;3.10;;
17925;SDS011;9088;55.674;13.354;2023-04-06T13:52:36;3.10;;;3.00;;
17925;SDS011;9088;55.674;13.354;2023-04-06T13:55:05;3.20;;;3.10;;
17925;SDS011;9088;55.674;13.354;2023-04-06T13:57:32;3.20;;;3.10;;
17925;SDS011;9088;55.674;13.354;2023-04-06T14:00:01;3.10;;;3.00;;
17925;SDS011;9088;55.674;13.354;2023-04-06T14:02:28;3.20;;;3.10;;
17925;SDS011;9088;55.674;13.354;2023-04-06T14:04:55;3.20;;;3.10;;
17925;SDS011;9088;55.674;13.354;2023-04-06T14:07:22;3.30;;;3.20;;
17925;SDS011;9088;55.674;13.354;2023-04-06T14:09:49;3.20;;;3.10;;
17925;SDS011;9088;55.674;13.354;2023-04-06T14:12:18;3.00;;;2.90;;
17925;SDS011;9088;55.674;13.354;2023-04-06T14:14:45;3.20;;;3.10;;
17925;SDS011;9088;55.674;13.354;2023-04-06T14:17:12;3.00;;;2.90;;
17925;SDS011;9088;55.674;13.354;2023-04-06T14:19:39;3.20;;;3.10;;
17925;SDS011;9088;55.674;13.354;2023-04-06T14:22:06;3.10;;;3.00;;
17925;SDS011;9088;55.674;13.354;2023-04-06T14:24:34;3.00;;;2.90;;
17925;SDS011;9088;55.674;13.354;2023-04-06T14:27:01;3.50;;;3.40;;
17925;SDS011;9088;55.674;13.354;2023-04-06T14:29:30;3.40;;;3.30;;
17925;SDS011;9088;55.674;13.354;2023-04-06T14:31:57;2.97;;;2.87;;
17925;SDS011;9088;55.674;13.354;2023-04-06T14:34:25;3.57;;;3.47;;
17925;SDS011;9088;55.674;13.354;2023-04-06T14:36:52;3.00;;;2.90;;
17925;SDS011;9088;55.674;13.354;2023-04-06T14:39:19;3.20;;;3.10;;
17925;SDS011;9088;55.674;13.354;2023-04-06T14:41:46;3.60;;;3.50;;
17925;SDS011;9088;55.674;13.354;2023-04-06T14:44:13;3.60;;;3.50;;
17925;SDS011;9088;55.674;13.354;2023-04-06T14:46:42;3.47;;;3.37;;
17925;SDS011;9088;55.674;13.354;2023-04-06T14:49:09;3.27;;;3.17;;
17925;SDS011;9088;55.674;13.354;2023-04-06T14:51:36;3.40;;;3.30;;
17925;SDS011;9088;55.674;13.354;2023-04-06T14:54:04;3.33;;;3.23;;
17925;SDS011;9088;55.674;13.354;2023-04-06T14:56:31;3.13;;;3.03;;
17925;SDS011;9088;55.674;13.354;2023-04-06T14:58:58;2.90;;;2.80;;
17925;SDS011;9088;55.674;13.354;2023-04-06T15:01:26;3.20;;;3.10;;
17925;SDS011;9088;55.674;13.354;2023-04-06T15:03:55;3.00;;;2.90;;
17925;SDS011;9088;55.674;13.354;2023-04-06T15:06:22;2.80;;;2.70;;
17925;SDS011;9088;55.674;13.354;2023-04-06T15:08:49;2.90;;;2.80;;
17925;SDS011;9088;55.674;13.354;2023-04-06T15:11:16;2.90;;;2.80;;
17925;SDS011;9088;55.674;13.354;2023-04-06T15:13:43;2.90;;;2.80;;
17925;SDS011;9088;55.674;13.354;2023-04-06T15:16:10;2.70;;;2.60;;
17925;SDS011;9088;55.674;13.354;2023-04-06T15:18:39;2.80;;;2.70;;
17925;SDS011;9088;55.674;13.354;2023-04-06T15:21:07;3.00;;;2.90;;
17925;SDS011;9088;55.674;13.354;2023-04-06T15:23:34;3.13;;;3.03;;
17925;SDS011;9088;55.674;13.354;2023-04-06T15:26:01;3.20;;;3.10;;
17925;SDS011;9088;55.674;13.354;2023-04-06T15:28:29;2.80;;;2.70;;
17925;SDS011;9088;55.674;13.354;2023-04-06T15:30:56;3.10;;;3.00;;
17925;SDS011;9088;55.674;13.354;2023-04-06T15:33:23;2.80;;;2.70;;
17925;SDS011;9088;55.674;13.354;2023-04-06T15:35:51;2.77;;;2.67;;
17925;SDS011;9088;55.674;13.354;2023-04-06T15:38:20;2.93;;;2.83;;
17925;SDS011;9088;55.674;13.354;2023-04-06T15:40:48;2.83;;;2.73;;
17925;SDS011;9088;55.674;13.354;2023-04-06T15:43:15;3.00;;;2.90;;
17925;SDS011;9088;55.674;13.354;2023-04-06T15:45:42;2.87;;;2.77;;
17925;SDS011;9088;55.674;13.354;2023-04-06T15:48:09;2.90;;;2.80;;
17925;SDS011;9088;55.674;13.354;2023-04-06T15:50:36;3.00;;;2.90;;
17925;SDS011;9088;55.674;13.354;2023-04-06T15:53:03;3.00;;;2.90;;
17925;SDS011;9088;55.674;13.354;2023-04-06T15:55:32;2.90;;;2.80;;
17925;SDS011;9088;55.674;13.354;2023-04-06T15:57:59;3.00;;;2.90;;
17925;SDS011;9088;55.674;13.354;2023-04-06T16:00:26;2.67;;;2.57;;
17925;SDS011;9088;55.674;13.354;2023-04-06T16:02:53;2.80;;;2.70;;
17925;SDS011;9088;55.674;13.354;2023-04-06T16:05:21;2.77;;;2.67;;
17925;SDS011;9088;55.674;13.354;2023-04-06T16:07:48;2.80;;;2.70;;
17925;SDS011;9088;55.674;13.354;2023-04-06T16:10:15;2.40;;;2.30;;
17925;SDS011;9088;55.674;13.354;2023-04-06T16:12:44;2.97;;;2.87;;
17925;SDS011;9088;55.674;13.354;2023-04-06T16:15:11;3.10;;;3.00;;
17925;SDS011;9088;55.674;13.354;2023-04-06T16:17:38;2.93;;;2.83;;
17925;SDS011;9088;55.674;13.354;2023-04-06T16:20:06;3.00;;;2.90;;
17925;SDS011;9088;55.674;13.354;2023-04-06T16:22:33;2.73;;;2.63;;
17925;SDS011;9088;55.674;13.354;2023-04-06T16:25:00;3.10;;;3.00;;
17925;SDS011;9088;55.674;13.354;2023-04-06T16:27:27;3.00;;;2.90;;
17925;SDS011;9088;55.674;13.354;2023-04-06T16:29:56;3.10;;;3.00;;
17925;SDS011;9088;55.674;13.354;2023-04-06T16:32:23;3.10;;;3.00;;
17925;SDS011;9088;55.674;13.354;2023-04-06T16:34:50;3.00;;;2.90;;
17925;SDS011;9088;55.674;13.354;2023-04-06T16:37:17;3.20;;;3.10;;
17925;SDS011;9088;55.674;13.354;2023-04-06T16:39:44;3.10;;;3.00;;
17925;SDS011;9088;55.674;13.354;2023-04-06T16:42:11;3.00;;;2.90;;
17925;SDS011;9088;55.674;13.354;2023-04-06T16:44:40;2.73;;;2.63;;
17925;SDS011;9088;55.674;13.354;2023-04-06T16:47:08;2.90;;;2.80;;
17925;SDS011;9088;55.674;13.354;2023-04-06T16:49:35;2.80;;;2.70;;
17925;SDS011;9088;55.674;13.354;2023-04-06T16:52:02;3.00;;;2.90;;
17925;SDS011;9088;55.674;13.354;2023-04-06T16:54:30;3.00;;;2.90;;
17925;SDS011;9088;55.674;13.354;2023-04-06T16:56:58;2.70;;;2.60;;
17925;SDS011;9088;55.674;13.354;2023-04-06T16:59:26;2.70;;;2.60;;
17925;SDS011;9088;55.674;13.354;2023-04-06T17:01:53;2.80;;;2.70;;
17925;SDS011;9088;55.674;13.354;2023-04-06T17:04:21;2.70;;;2.60;;
17925;SDS011;9088;55.674;13.354;2023-04-06T17:06:48;2.80;;;2.70;;
17925;SDS011;9088;55.674;13.354;2023-04-06T17:09:15;2.70;;;2.60;;
17925;SDS011;9088;55.674;13.354;2023-04-06T17:11:42;2.50;;;2.40;;
17925;SDS011;9088;55.674;13.354;2023-04-06T17:14:09;2.60;;;2.50;;
17925;SDS011;9088;55.674;13.354;2023-04-06T17:16:36;2.50;;;2.40;;
17925;SDS011;9088;55.674;13.354;2023-04-06T17:19:03;2.60;;;2.50;;
17925;SDS011;9088;55.674;13.354;2023-04-06T17:21:32;2.60;;;2.50;;
17925;SDS011;9088;55.674;13.354;2023-04-06T17:23:59;2.57;;;2.47;;
17925;SDS011;9088;55.674;13.354;2023-04-06T17:26:26;2.60;;;2.50;;
17925;SDS011;9088;55.674;13.354;2023-04-06T17:28:53;2.60;;;2.50;;
17925;SDS011;9088;55.674;13.354;2023-04-06T17:31:20;2.50;;;2.40;;
17925;SDS011;9088;55.674;13.354;2023-04-06T17:33:47;2.53;;;2.43;;
17925;SDS011;9088;55.674;13.354;2023-04-06T17:36:14;2.50;;;2.40;;
17925;SDS011;9088;55.674;13.354;2023-04-06T17:38:42;2.50;;;2.40;;
17925;SDS011;9088;55.674;13.354;2023-04-06T17:41:10;2.60;;;2.50;;
17925;SDS011;9088;55.674;13.354;2023-04-06T17:43:38;2.60;;;2.50;;
17925;SDS011;9088;55.674;13.354;2023-04-06T17:46:05;2.70;;;2.60;;
17925;SDS011;9088;55.674;13.354;2023-04-06T17:48:32;2.50;;;2.40;;
17925;SDS011;9088;55.674;13.354;2023-04-06T17:50:59;0.30;;;0.30;;
17925;SDS011;9088;55.674;13.354;2023-04-06T17:53:26;0.40;;;0.40;;
17925;SDS011;9088;55.674;13.354;2023-04-06T17:55:58;0.30;;;0.30;;
17925;SDS011;9088;55.674;13.354;2023-04-06T17:58:27;0.40;;;0.40;;
17925;SDS011;9088;55.674;13.354;2023-04-06T18:00:55;0.40;;;0.40;;
17925;SDS011;9088;55.674;13.354;2023-04-06T18:03:22;0.40;;;0.40;;
17925;SDS011;9088;55.674;13.354;2023-04-06T18:05:49;0.30;;;0.30;;
17925;SDS011;9088;55.674;13.354;2023-04-06T18:08:16;0.40;;;0.40;;
17925;SDS011;9088;55.674;13.354;2023-04-06T18:10:43;0.30;;;0.30;;
17925;SDS011;9088;55.674;13.354;2023-04-06T18:13:11;0.40;;;0.40;;
17925;SDS011;9088;55.674;13.354;2023-04-06T18:15:38;0.40;;;0.40;;
17925;SDS011;9088;55.674;13.354;2023-04-06T18:18:05;0.30;;;0.30;;
17925;SDS011;9088;55.674;13.354;2023-04-06T18:20:32;0.37;;;0.37;;
17925;SDS011;9088;55.674;13.354;2023-04-06T18:22:59;0.40;;;0.40;;
17925;SDS011;9088;55.674;13.354;2023-04-06T18:25:27;0.40;;;0.40;;
17925;SDS011;9088;55.674;13.354;2023-04-06T18:27:54;0.30;;;0.30;;
17925;SDS011;9088;55.674;13.354;2023-04-06T18:30:22;0.40;;;0.40;;
17925;SDS011;9088;55.674;13.354;2023-04-06T18:32:49;0.30;;;0.30;;
17925;SDS011;9088;55.674;13.354;2023-04-06T18:35:16;0.30;;;0.30;;
17925;SDS011;9088;55.674;13.354;2023-04-06T18:37:43;0.40;;;0.40;;
17925;SDS011;9088;55.674;13.354;2023-04-06T18:42:52;0.40;;;0.40;;
17925;SDS011;9088;55.674;13.354;2023-04-06T18:45:19;0.40;;;0.40;;
17925;SDS011;9088;55.674;13.354;2023-04-06T18:47:49;0.40;;;0.40;;
17925;SDS011;9088;55.674;13.354;2023-04-06T18:50:16;0.40;;;0.40;;
17925;SDS011;9088;55.674;13.354;2023-04-06T18:52:43;0.40;;;0.40;;
17925;SDS011;9088;55.674;13.354;2023-04-06T18:55:10;0.50;;;0.50;;
17925;SDS011;9088;55.674;13.354;2023-04-06T18:57:36;0.50;;;0.50;;
17925;SDS011;9088;55.674;13.354;2023-04-06T19:00:04;0.50;;;0.50;;
17925;SDS011;9088;55.674;13.354;2023-04-06T19:02:31;0.50;;;0.50;;
17925;SDS011;9088;55.674;13.354;2023-04-06T19:05:00;0.50;;;0.50;;
17925;SDS011;9088;55.674;13.354;2023-04-06T19:07:27;0.60;;;0.60;;
17925;SDS011;9088;55.674;13.354;2023-04-06T19:09:55;0.60;;;0.60;;
17925;SDS011;9088;55.674;13.354;2023-04-06T19:12:22;0.70;;;0.70;;
17925;SDS011;9088;55.674;13.354;2023-04-06T19:14:49;0.80;;;0.80;;
17925;SDS011;9088;55.674;13.354;2023-04-06T19:17:16;0.80;;;0.80;;
17925;SDS011;9088;55.674;13.354;2023-04-06T19:19:43;0.80;;;0.80;;
17925;SDS011;9088;55.674;13.354;2023-04-06T19:22:12;0.80;;;0.80;;
17925;SDS011;9088;55.674;13.354;2023-04-06T19:24:40;0.90;;;0.90;;
17925;SDS011;9088;55.674;13.354;2023-04-06T19:27:07;1.00;;;1.00;;
17925;SDS011;9088;55.674;13.354;2023-04-06T19:29:34;0.90;;;0.90;;
17925;SDS011;9088;55.674;13.354;2023-04-06T19:32:02;1.10;;;1.10;;
17925;SDS011;9088;55.674;13.354;2023-04-06T19:34:31;1.20;;;1.20;;
17925;SDS011;9088;55.674;13.354;2023-04-06T19:36:59;1.20;;;1.20;;
17925;SDS011;9088;55.674;13.354;2023-04-06T19:39:27;1.30;;;1.30;;
17925;SDS011;9088;55.674;13.354;2023-04-06T19:41:55;1.30;;;1.30;;
17925;SDS011;9088;55.674;13.354;2023-04-06T19:44:22;1.30;;;1.30;;
17925;SDS011;9088;55.674;13.354;2023-04-06T19:46:49;1.20;;;1.20;;
17925;SDS011;9088;55.674;13.354;2023-04-06T19:49:17;1.30;;;1.30;;
17925;SDS011;9088;55.674;13.354;2023-04-06T19:51:44;1.40;;;1.40;;
17925;SDS011;9088;55.674;13.354;2023-04-06T19:54:11;1.50;;;1.50;;
17925;SDS011;9088;55.674;13.354;2023-04-06T19:56:39;1.50;;;1.50;;
17925;SDS011;9088;55.674;13.354;2023-04-06T19:59:06;1.60;;;1.60;;
17925;SDS011;9088;55.674;13.354;2023-04-06T20:01:34;1.50;;;1.50;;
17925;SDS011;9088;55.674;13.354;2023-04-06T20:04:02;1.70;;;1.70;;
17925;SDS011;9088;55.674;13.354;2023-04-06T20:06:31;1.60;;;1.60;;
17925;SDS011;9088;55.674;13.354;2023-04-06T20:08:58;1.70;;;1.70;;
17925;SDS011;9088;55.674;13.354;2023-04-06T20:11:25;1.80;;;1.80;;
17925;SDS011;9088;55.674;13.354;2023-04-06T20:13:53;1.80;;;1.80;;
17925;SDS011;9088;55.674;13.354;2023-04-06T20:16:20;1.90;;;1.90;;
17925;SDS011;9088;55.674;13.354;2023-04-06T20:18:47;2.00;;;1.90;;
17925;SDS011;9088;55.674;13.354;2023-04-06T20:21:15;2.10;;;2.00;;
17925;SDS011;9088;55.674;13.354;2023-04-06T20:23:42;2.20;;;2.10;;
17925;SDS011;9088;55.674;13.354;2023-04-06T20:26:09;2.20;;;2.10;;
17925;SDS011;9088;55.674;13.354;2023-04-06T20:28:36;2.30;;;2.20;;
17925;SDS011;9088;55.674;13.354;2023-04-06T20:31:05;2.20;;;2.10;;
17925;SDS011;9088;55.674;13.354;2023-04-06T20:33:32;2.20;;;2.10;;
17925;SDS011;9088;55.674;13.354;2023-04-06T20:36:00;2.30;;;2.20;;
17925;SDS011;9088;55.674;13.354;2023-04-06T20:38:27;2.20;;;2.10;;
17925;SDS011;9088;55.674;13.354;2023-04-06T20:40:54;2.40;;;2.30;;
17925;SDS011;9088;55.674;13.354;2023-04-06T20:43:23;2.33;;;2.23;;
17925;SDS011;9088;55.674;13.354;2023-04-06T20:45:52;2.30;;;2.20;;
17925;SDS011;9088;55.674;13.354;2023-04-06T20:48:22;2.40;;;2.30;;
17925;SDS011;9088;55.674;13.354;2023-04-06T20:50:49;2.40;;;2.30;;
17925;SDS011;9088;55.674;13.354;2023-04-06T20:53:16;2.50;;;2.40;;
17925;SDS011;9088;55.674;13.354;2023-04-06T20:55:44;2.63;;;2.53;;
17925;SDS011;9088;55.674;13.354;2023-04-06T20:58:11;2.60;;;2.50;;
17925;SDS011;9088;55.674;13.354;2023-04-06T21:00:38;2.70;;;2.60;;
17925;SDS011;9088;55.674;13.354;2023-04-06T21:03:05;2.70;;;2.60;;
17925;SDS011;9088;55.674;13.354;2023-04-06T21:05:36;2.70;;;2.60;;
17925;SDS011;9088;55.674;13.354;2023-04-06T21:08:03;2.80;;;2.70;;
17925;SDS011;9088;55.674;13.354;2023-04-06T21:10:30;2.80;;;2.70;;
17925;SDS011;9088;55.674;13.354;2023-04-06T21:12:57;2.93;;;2.83;;
17925;SDS011;9088;55.674;13.354;2023-04-06T21:15:24;2.90;;;2.80;;
17925;SDS011;9088;55.674;13.354;2023-04-06T21:17:52;2.80;;;2.70;;
17925;SDS011;9088;55.674;13.354;2023-04-06T21:20:19;3.00;;;2.90;;
17925;SDS011;9088;55.674;13.354;2023-04-06T21:22:47;2.80;;;2.70;;
17925;SDS011;9088;55.674;13.354;2023-04-06T21:25:14;2.90;;;2.80;;
17925;SDS011;9088;55.674;13.354;2023-04-06T21:27:41;2.80;;;2.70;;
17925;SDS011;9088;55.674;13.354;2023-04-06T21:30:09;2.90;;;2.80;;
17925;SDS011;9088;55.674;13.354;2023-04-06T21:32:36;3.10;;;3.00;;
17925;SDS011;9088;55.674;13.354;2023-04-06T21:35:03;3.10;;;3.00;;
17925;SDS011;9088;55.674;13.354;2023-04-06T21:37:30;3.00;;;2.90;;
17925;SDS011;9088;55.674;13.354;2023-04-06T21:39:59;3.00;;;2.90;;
17925;SDS011;9088;55.674;13.354;2023-04-06T21:42:26;2.80;;;2.70;;
17925;SDS011;9088;55.674;13.354;2023-04-06T21:44:53;3.00;;;2.90;;
17925;SDS011;9088;55.674;13.354;2023-04-06T21:47:20;3.13;;;3.03;;
17925;SDS011;9088;55.674;13.354;2023-04-06T21:49:47;3.10;;;3.00;;
17925;SDS011;9088;55.674;13.354;2023-04-06T21:52:14;3.20;;;3.10;;
17925;SDS011;9088;55.674;13.354;2023-04-06T21:54:41;3.33;;;3.23;;
17925;SDS011;9088;55.674;13.354;2023-04-06T21:57:09;3.07;;;2.97;;
17925;SDS011;9088;55.674;13.354;2023-04-06T21:59:37;3.07;;;2.97;;
17925;SDS011;9088;55.674;13.354;2023-04-06T22:02:05;3.10;;;3.00;;
17925;SDS011;9088;55.674;13.354;2023-04-06T22:04:32;3.27;;;3.17;;
17925;SDS011;9088;55.674;13.354;2023-04-06T22:06:59;3.20;;;3.10;;
17925;SDS011;9088;55.674;13.354;2023-04-06T22:09:26;3.20;;;3.10;;
17925;SDS011;9088;55.674;13.354;2023-04-06T22:11:53;3.20;;;3.10;;
17925;SDS011;9088;55.674;13.354;2023-04-06T22:14:21;3.10;;;3.00;;
17925;SDS011;9088;55.674;13.354;2023-04-06T22:16:48;3.30;;;3.20;;
17925;SDS011;9088;55.674;13.354;2023-04-06T22:19:15;3.20;;;3.10;;
17925;SDS011;9088;55.674;13.354;2023-04-06T22:21:42;3.30;;;3.20;;
17925;SDS011;9088;55.674;13.354;2023-04-06T22:24:10;3.07;;;2.97;;
17925;SDS011;9088;55.674;13.354;2023-04-06T22:26:37;3.20;;;3.10;;
17925;SDS011;9088;55.674;13.354;2023-04-06T22:29:04;3.30;;;3.20;;
17925;SDS011;9088;55.674;13.354;2023-04-06T22:31:32;3.10;;;3.00;;
17925;SDS011;9088;55.674;13.354;2023-04-06T22:33:59;3.20;;;3.10;;
17925;SDS011;9088;55.674;13.354;2023-04-06T22:36:26;3.20;;;3.10;;
17925;SDS011;9088;55.674;13.354;2023-04-06T22:38:53;3.27;;;3.17;;
17925;SDS011;9088;55.674;13.354;2023-04-06T22:41:20;3.20;;;3.10;;
17925;SDS011;9088;55.674;13.354;2023-04-06T22:43:47;3.20;;;3.10;;
17925;SDS011;9088;55.674;13.354;2023-04-06T22:46:14;3.30;;;3.20;;
17925;SDS011;9088;55.674;13.354;2023-04-06T22:48:42;3.27;;;3.17;;
17925;SDS011;9088;55.674;13.354;2023-04-06T22:51:12;3.20;;;3.10;;
17925;SDS011;9088;55.674;13.354;2023-04-06T22:53:39;3.20;;;3.10;;
17925;SDS011;9088;55.674;13.354;2023-04-06T22:56:08;3.20;;;3.10;;
17925;SDS011;9088;55.674;13.354;2023-04-06T22:58:36;3.30;;;3.20;;
17925;SDS011;9088;55.674;13.354;2023-04-06T23:01:03;3.20;;;3.10;;
17925;SDS011;9088;55.674;13.354;2023-04-06T23:03:31;3.00;;;2.90;;
17925;SDS011;9088;55.674;13.354;2023-04-06T23:05:59;3.10;;;3.00;;